createdAt,value
2018-11-21T00:00:26.877Z,3.39
2018-11-21T00:05:33.081Z,3.60
2018-11-21T00:10:34.706Z,3.56
2018-11-21T00:15:38.541Z,3.67
2018-11-21T00:20:42.251Z,3.75
2018-11-21T00:25:46.092Z,3.83
2018-11-21T00:30:49.802Z,3.86
2018-11-21T00:35:53.574Z,3.86
2018-11-21T00:40:57.510Z,3.84
2018-11-21T00:46:01.314Z,3.97
2018-11-21T00:51:05.181Z,3.98
2018-11-21T00:56:09.092Z,3.94
2018-11-21T01:01:12.958Z,3.96
2018-11-21T01:06:16.797Z,3.98
2018-11-21T01:11:20.605Z,3.93
2018-11-21T01:16:24.315Z,4.03
2018-11-21T01:21:28.035Z,4.05
2018-11-21T01:26:31.723Z,3.96
2018-11-21T01:31:35.569Z,4.00
2018-11-21T01:36:39.246Z,3.99
2018-11-21T01:41:43.859Z,3.96
2018-11-21T01:46:48.559Z,3.97
2018-11-21T01:51:50.145Z,4.05
2018-11-21T01:56:53.931Z,3.95
2018-11-21T02:01:59.618Z,3.97
2018-11-21T02:07:01.553Z,3.98
2018-11-21T02:12:05.279Z,3.97
2018-11-21T02:17:10.976Z,4.04
2018-11-21T02:22:12.637Z,4.00
2018-11-21T02:27:16.312Z,4.06
2018-11-21T02:32:20.002Z,4.02
2018-11-21T02:37:23.755Z,4.07
2018-11-21T02:42:29.323Z,4.08
2018-11-21T02:47:31.026Z,4.08
2018-11-21T02:52:34.799Z,4.02
2018-11-21T02:57:39.982Z,3.98
2018-11-21T03:02:42.201Z,4.07
2018-11-21T03:07:59.310Z,4.13
2018-11-21T03:13:02.989Z,4.12
2018-11-21T03:18:06.828Z,4.03
2018-11-21T03:23:10.591Z,3.99
2018-11-21T03:28:14.266Z,3.93
2018-11-21T03:33:18.077Z,3.82
2018-11-21T03:38:21.856Z,3.91
2018-11-21T03:43:27.054Z,3.85
2018-11-21T03:48:29.370Z,3.96
2018-11-21T03:53:32.986Z,3.86
2018-11-21T03:58:38.663Z,4.01
2018-11-21T04:03:40.514Z,3.99
2018-11-21T04:08:44.297Z,3.95
2018-11-21T04:13:47.919Z,3.76
2018-11-21T04:18:56.014Z,3.88
2018-11-21T04:24:01.034Z,3.82
2018-11-21T04:29:03.255Z,3.81
2018-11-21T04:34:07.015Z,3.86
2018-11-21T04:39:11.758Z,3.85
2018-11-21T04:44:15.404Z,3.84
2018-11-21T04:49:19.088Z,3.84
2018-11-21T04:54:22.673Z,3.81
2018-11-21T04:59:26.544Z,3.85
2018-11-21T05:04:30.524Z,3.84
2018-11-21T05:09:34.388Z,3.84
2018-11-21T05:14:39.409Z,3.80
2018-11-21T05:19:41.914Z,3.80
2018-11-21T05:24:45.727Z,3.72
2018-11-21T05:29:49.646Z,3.61
2018-11-21T05:34:54.847Z,3.71
2018-11-21T05:39:57.312Z,3.77
2018-11-21T05:45:01.218Z,3.86
2018-11-21T05:50:07.426Z,3.89
2018-11-21T05:55:10.101Z,3.83
2018-11-21T06:00:14.690Z,3.85
2018-11-21T06:05:18.422Z,3.87
2018-11-21T06:10:24.192Z,3.90
2018-11-21T06:15:26.059Z,3.79
2018-11-21T06:20:29.764Z,3.94
2018-11-21T06:25:33.659Z,3.90
2018-11-21T06:30:40.297Z,3.90
2018-11-21T06:35:45.331Z,3.87
2018-11-21T06:40:47.993Z,3.99
2018-11-21T06:45:54.064Z,3.95
2018-11-21T06:50:57.785Z,4.01
2018-11-21T06:56:00.286Z,3.97
2018-11-21T07:01:05.442Z,3.99
2018-11-21T07:06:09.900Z,4.02
2018-11-21T07:11:12.812Z,4.04
2018-11-21T07:16:17.035Z,4.01
2018-11-21T07:21:23.264Z,4.19
2018-11-21T07:26:26.314Z,4.16
2018-11-21T07:31:30.980Z,4.17
2018-11-21T07:36:35.125Z,4.14
2018-11-21T07:41:38.517Z,4.21
2018-11-21T07:46:42.269Z,4.25
2018-11-21T07:51:46.494Z,4.27
2018-11-21T07:57:42.346Z,4.31
2018-11-21T08:02:44.630Z,4.32
2018-11-21T08:07:56.525Z,4.26
2018-11-21T08:13:19.022Z,4.12
2018-11-21T08:18:56.756Z,4.07
2018-11-21T08:24:11.044Z,4.20
2018-11-21T08:29:14.660Z,4.30
2018-11-21T08:34:18.227Z,4.33
2018-11-21T08:39:21.860Z,4.28
2018-11-21T08:44:25.526Z,4.35
2018-11-21T08:49:30.223Z,4.27
2018-11-21T08:54:32.809Z,4.24
2018-11-21T08:59:36.238Z,4.28
2018-11-21T09:04:40.007Z,4.17
2018-11-21T09:09:43.705Z,4.07
2018-11-21T09:14:47.289Z,4.15
2018-11-21T09:19:51.417Z,4.23
2018-11-21T09:24:54.975Z,4.15
2018-11-21T09:29:58.530Z,4.20
2018-11-21T09:35:12.601Z,4.30
2018-11-21T09:40:17.847Z,4.23
2018-11-21T09:45:22.553Z,4.27
2018-11-21T09:50:28.247Z,4.33
2018-11-21T09:55:31.988Z,4.28
2018-11-21T10:01:12.482Z,4.23
2018-11-21T10:06:24.408Z,4.21
2018-11-21T10:11:32.112Z,4.16
2018-11-21T10:16:36.004Z,4.22
2018-11-21T10:21:40.113Z,4.22
2018-11-21T10:26:44.014Z,4.12
2018-11-21T10:31:49.114Z,4.29
2018-11-21T10:36:51.592Z,4.32
2018-11-21T10:41:57.433Z,4.35
2018-11-21T10:47:03.208Z,4.32
2018-11-21T10:52:06.793Z,4.46
2018-11-21T10:57:12.774Z,4.50
2018-11-21T11:02:25.532Z,4.49
2018-11-21T11:19:27.372Z,4.57
2018-11-21T11:24:53.682Z,4.53
2018-11-21T11:30:19.413Z,4.53
2018-11-21T11:35:45.598Z,4.57
2018-11-21T11:41:12.354Z,4.59
2018-11-21T11:46:32.875Z,4.44
2018-11-21T11:51:52.172Z,4.54
2018-11-21T11:57:13.598Z,4.45
2018-11-21T12:02:38.849Z,4.47
2018-11-21T12:08:01.679Z,4.47
2018-11-21T12:13:41.190Z,4.45
2018-11-21T12:19:14.047Z,4.37
2018-11-21T12:24:35.464Z,4.42
2018-11-21T12:30:03.315Z,4.29
2018-11-21T12:35:37.788Z,4.38
2018-11-21T12:41:10.464Z,4.37
2018-11-21T12:46:47.629Z,4.41
2018-11-21T12:52:22.379Z,4.51
2018-11-21T12:57:43.969Z,4.38
2018-11-21T13:03:01.200Z,4.58
2018-11-21T13:08:27.945Z,4.52
2018-11-21T13:13:53.422Z,4.57
2018-11-21T13:19:23.110Z,4.61
2018-11-21T13:24:44.773Z,4.37
2018-11-21T13:29:56.005Z,4.38
2018-11-21T13:35:07.006Z,4.34
2018-11-21T13:40:30.734Z,4.32
2018-11-21T13:45:52.198Z,4.36
2018-11-21T13:51:15.364Z,4.21
2018-11-21T13:56:17.874Z,4.25
2018-11-21T14:01:23.269Z,4.26
2018-11-21T14:06:29.684Z,4.39
2018-11-21T14:11:31.691Z,4.26
2018-11-21T14:16:37.761Z,4.24
2018-11-21T14:21:42.814Z,4.35
2018-11-21T14:26:55.397Z,4.46
2018-11-21T14:31:55.287Z,4.43
2018-11-21T14:37:03.837Z,4.38
2018-11-21T14:42:08.130Z,4.43
2018-11-21T14:47:08.820Z,4.41
2018-11-21T14:52:14.091Z,4.39
2018-11-21T14:57:15.550Z,4.33
2018-11-21T15:02:17.845Z,4.27
2018-11-21T15:07:23.501Z,4.26
2018-11-21T15:12:25.213Z,4.26
2018-11-21T15:17:31.077Z,4.21
2018-11-21T15:22:44.519Z,4.05
2018-11-21T15:27:48.164Z,4.21
2018-11-21T15:32:53.088Z,4.24
2018-11-21T15:37:57.516Z,4.16
2018-11-21T15:42:59.107Z,4.16
2018-11-21T15:48:03.232Z,4.20
2018-11-21T15:53:07.059Z,4.22
2018-11-21T15:58:10.643Z,4.16
2018-11-21T16:03:14.401Z,4.24
2018-11-21T16:08:22.112Z,4.20
2018-11-21T16:13:24.572Z,4.29
2018-11-21T16:18:28.691Z,4.23
2018-11-21T16:23:32.478Z,4.28
2018-11-21T16:28:36.288Z,4.33
2018-11-21T16:33:39.847Z,4.29
2018-11-21T16:38:43.410Z,4.33
2018-11-21T16:43:48.064Z,4.32
2018-11-21T16:48:51.776Z,4.21
2018-11-21T16:53:55.476Z,4.21
2018-11-21T16:59:02.910Z,4.19
2018-11-21T17:04:12.873Z,4.20
2018-11-21T17:09:17.525Z,4.26
2018-11-21T17:14:21.066Z,4.26
2018-11-21T17:19:25.215Z,4.26
2018-11-21T17:24:29.261Z,4.26
2018-11-21T17:29:34.960Z,4.17
2018-11-21T17:34:40.762Z,4.27
2018-11-21T17:39:46.847Z,4.33
2018-11-21T17:50:15.482Z,4.29
2018-11-21T17:55:21.125Z,4.34
2018-11-21T18:00:26.204Z,4.31
2018-11-21T18:05:31.791Z,4.27
2018-11-21T18:10:36.922Z,4.29
2018-11-21T18:15:40.757Z,4.31
2018-11-21T18:20:44.397Z,4.39
2018-11-21T18:25:48.249Z,4.37
2018-11-21T18:30:51.998Z,4.32
2018-11-21T18:42:23.537Z,4.34
2018-11-21T18:47:25.972Z,4.33
2018-11-21T18:52:29.646Z,4.39
2018-11-21T18:58:15.347Z,4.26
2018-11-21T19:03:19.303Z,4.27
2018-11-21T19:08:23.997Z,4.33
2018-11-21T19:13:28.398Z,4.43
2018-11-21T19:18:32.208Z,4.42
2018-11-21T19:23:35.877Z,4.51
2018-11-21T19:28:39.550Z,4.48
2018-11-21T19:33:43.472Z,4.45
2018-11-21T19:38:47.144Z,4.39
2018-11-21T19:43:50.886Z,4.40
2018-11-21T19:48:54.482Z,4.36
2018-11-21T19:53:58.357Z,4.46
2018-11-21T19:59:01.972Z,4.38
2018-11-21T20:04:05.722Z,4.33
2018-11-21T20:09:12.163Z,4.38
2018-11-21T20:14:16.688Z,4.33
2018-11-21T20:19:24.397Z,4.32
2018-11-21T20:24:31.026Z,4.35
2018-11-21T20:29:34.736Z,4.32
2018-11-21T20:34:39.280Z,4.18
2018-11-21T20:39:46.826Z,4.23
2018-11-21T20:44:46.348Z,4.22
2018-11-21T20:49:50.106Z,4.23
2018-11-21T20:54:59.065Z,4.15
2018-11-21T21:00:00.429Z,4.22
2018-11-21T21:05:04.376Z,4.26
2018-11-21T21:10:09.307Z,4.04
2018-11-21T21:15:12.965Z,4.06
2018-11-21T21:20:18.428Z,4.14
2018-11-21T21:25:23.758Z,4.08
2018-11-21T21:30:31.261Z,3.92
2018-11-21T21:35:33.448Z,3.94
2018-11-21T21:40:37.125Z,3.94
2018-11-21T21:45:40.993Z,3.94
2018-11-21T21:50:44.621Z,4.01
2018-11-21T21:55:48.182Z,4.04
2018-11-21T22:00:51.812Z,4.14
2018-11-21T22:05:55.391Z,3.94
2018-11-21T22:10:59.097Z,4.10
2018-11-21T22:16:02.725Z,4.09
2018-11-21T22:21:06.611Z,3.97
2018-11-21T22:26:10.181Z,4.00
2018-11-21T22:31:13.852Z,3.89
2018-11-21T22:36:17.625Z,3.97
2018-11-21T22:41:22.378Z,4.09
2018-11-21T22:46:24.996Z,4.12
2018-11-21T22:51:29.636Z,4.09
2018-11-21T22:56:32.188Z,4.04
2018-11-21T23:01:40.801Z,4.07
2018-11-21T23:06:45.390Z,3.92
2018-11-21T23:12:03.768Z,4.05
2018-11-21T23:30:16.974Z,4.00
2018-11-21T23:36:28.005Z,4.08
2018-11-21T23:42:07.058Z,4.14
2018-11-21T23:47:51.754Z,4.08
2018-11-21T23:53:23.800Z,4.00
2018-11-21T23:58:53.993Z,4.08
